sensor_id;sensor_type;location;lat;lon;timestamp;temperature;humidity
11446;DHT22;5779;64.178;15.432;2023-11-18T00:01:21;-19.70;99.90
11446;DHT22;5779;64.178;15.432;2023-11-18T00:04:08;-19.50;99.90
11446;DHT22;5779;64.178;15.432;2023-11-18T00:07:01;-19.50;99.90
11446;DHT22;5779;64.178;15.432;2023-11-18T00:09:49;-19.40;99.90
11446;DHT22;5779;64.178;15.432;2023-11-18T00:12:36;-19.40;99.90
11446;DHT22;5779;64.178;15.432;2023-11-18T00:15:25;-19.60;99.90
11446;DHT22;5779;64.178;15.432;2023-11-18T00:18:14;-19.40;99.90
11446;DHT22;5779;64.178;15.432;2023-11-18T00:21:01;-19.40;99.90
11446;DHT22;5779;64.178;15.432;2023-11-18T00:23:47;-19.40;99.90
11446;DHT22;5779;64.178;15.432;2023-11-18T00:26:34;-19.40;99.90
11446;DHT22;5779;64.178;15.432;2023-11-18T00:29:21;-19.20;99.90
11446;DHT22;5779;64.178;15.432;2023-11-18T00:32:08;-19.10;99.90
11446;DHT22;5779;64.178;15.432;2023-11-18T00:34:57;-19.10;99.90
11446;DHT22;5779;64.178;15.432;2023-11-18T00:37:44;-19.00;99.90
11446;DHT22;5779;64.178;15.432;2023-11-18T00:40:31;-18.90;99.90
11446;DHT22;5779;64.178;15.432;2023-11-18T00:43:18;-18.80;99.90
11446;DHT22;5779;64.178;15.432;2023-11-18T00:46:05;-19.00;99.90
11446;DHT22;5779;64.178;15.432;2023-11-18T00:48:51;-18.90;99.90
11446;DHT22;5779;64.178;15.432;2023-11-18T00:51:40;-18.90;99.90
11446;DHT22;5779;64.178;15.432;2023-11-18T00:54:27;-18.80;99.90
11446;DHT22;5779;64.178;15.432;2023-11-18T00:57:14;-18.80;99.90
11446;DHT22;5779;64.178;15.432;2023-11-18T01:00:01;-18.90;99.90
11446;DHT22;5779;64.178;15.432;2023-11-18T01:02:48;-18.90;99.90
11446;DHT22;5779;64.178;15.432;2023-11-18T01:05:36;-18.80;99.90
11446;DHT22;5779;64.178;15.432;2023-11-18T01:08:25;-18.90;99.90
11446;DHT22;5779;64.178;15.432;2023-11-18T01:11:16;-18.80;99.90
11446;DHT22;5779;64.178;15.432;2023-11-18T01:14:04;-18.70;99.90
11446;DHT22;5779;64.178;15.432;2023-11-18T01:16:51;-18.60;99.90
11446;DHT22;5779;64.178;15.432;2023-11-18T01:19:38;-18.40;99.90
11446;DHT22;5779;64.178;15.432;2023-11-18T01:22:25;-18.30;99.90
11446;DHT22;5779;64.178;15.432;2023-11-18T01:25:13;-18.20;99.90
11446;DHT22;5779;64.178;15.432;2023-11-18T01:28:02;-18.10;99.90
11446;DHT22;5779;64.178;15.432;2023-11-18T01:30:49;-18.10;99.90
11446;DHT22;5779;64.178;15.432;2023-11-18T01:33:36;-17.90;99.90
11446;DHT22;5779;64.178;15.432;2023-11-18T01:36:25;-17.90;99.90
11446;DHT22;5779;64.178;15.432;2023-11-18T01:39:12;-17.80;99.90
11446;DHT22;5779;64.178;15.432;2023-11-18T01:42:00;-17.90;99.90
11446;DHT22;5779;64.178;15.432;2023-11-18T01:44:48;-18.30;99.90
11446;DHT22;5779;64.178;15.432;2023-11-18T01:47:35;-18.20;99.90
11446;DHT22;5779;64.178;15.432;2023-11-18T01:50:22;-18.30;99.90
11446;DHT22;5779;64.178;15.432;2023-11-18T01:53:11;-18.20;99.90
11446;DHT22;5779;64.178;15.432;2023-11-18T01:55:59;-18.20;99.90
11446;DHT22;5779;64.178;15.432;2023-11-18T01:58:47;-18.30;99.90
11446;DHT22;5779;64.178;15.432;2023-11-18T02:01:34;-18.20;99.90
11446;DHT22;5779;64.178;15.432;2023-11-18T02:04:21;-18.20;99.90
11446;DHT22;5779;64.178;15.432;2023-11-18T02:07:08;-18.30;99.90
11446;DHT22;5779;64.178;15.432;2023-11-18T02:09:58;-18.20;99.90
11446;DHT22;5779;64.178;15.432;2023-11-18T02:12:49;-18.60;99.90
11446;DHT22;5779;64.178;15.432;2023-11-18T02:15:40;-18.70;99.90
11446;DHT22;5779;64.178;15.432;2023-11-18T02:18:29;-18.40;99.90
11446;DHT22;5779;64.178;15.432;2023-11-18T02:21:17;-18.20;99.90
11446;DHT22;5779;64.178;15.432;2023-11-18T02:24:04;-18.10;99.90
11446;DHT22;5779;64.178;15.432;2023-11-18T02:26:53;-18.00;99.90
11446;DHT22;5779;64.178;15.432;2023-11-18T02:29:42;-18.30;99.90
11446;DHT22;5779;64.178;15.432;2023-11-18T02:32:33;-18.30;99.90
11446;DHT22;5779;64.178;15.432;2023-11-18T02:35:24;-18.20;99.90
11446;DHT22;5779;64.178;15.432;2023-11-18T02:38:12;-18.20;99.90
11446;DHT22;5779;64.178;15.432;2023-11-18T02:41:04;-18.20;99.90
11446;DHT22;5779;64.178;15.432;2023-11-18T02:43:56;-18.20;99.90
11446;DHT22;5779;64.178;15.432;2023-11-18T02:46:43;-18.30;99.90
11446;DHT22;5779;64.178;15.432;2023-11-18T02:49:30;-18.80;99.90
11446;DHT22;5779;64.178;15.432;2023-11-18T02:52:17;-18.60;99.90
11446;DHT22;5779;64.178;15.432;2023-11-18T02:55:05;-18.50;99.90
11446;DHT22;5779;64.178;15.432;2023-11-18T02:57:53;-18.40;99.90
11446;DHT22;5779;64.178;15.432;2023-11-18T03:00:41;-18.60;99.90
11446;DHT22;5779;64.178;15.432;2023-11-18T03:03:30;-18.40;99.90
11446;DHT22;5779;64.178;15.432;2023-11-18T03:06:16;-18.30;99.90
11446;DHT22;5779;64.178;15.432;2023-11-18T03:09:04;-18.10;99.90
11446;DHT22;5779;64.178;15.432;2023-11-18T03:11:52;-18.50;99.90
11446;DHT22;5779;64.178;15.432;2023-11-18T03:14:40;-18.40;99.90
11446;DHT22;5779;64.178;15.432;2023-11-18T03:17:28;-18.40;99.90
11446;DHT22;5779;64.178;15.432;2023-11-18T03:20:15;-18.00;99.90
11446;DHT22;5779;64.178;15.432;2023-11-18T03:23:03;-17.90;99.90
11446;DHT22;5779;64.178;15.432;2023-11-18T03:25:50;-18.10;99.90
11446;DHT22;5779;64.178;15.432;2023-11-18T03:28:37;-18.20;99.90
11446;DHT22;5779;64.178;15.432;2023-11-18T03:31:24;-18.10;99.90
11446;DHT22;5779;64.178;15.432;2023-11-18T03:34:12;-18.00;99.90
11446;DHT22;5779;64.178;15.432;2023-11-18T03:36:59;-17.90;99.90
11446;DHT22;5779;64.178;15.432;2023-11-18T03:39:47;-17.70;99.90
11446;DHT22;5779;64.178;15.432;2023-11-18T03:42:35;-17.50;99.90
11446;DHT22;5779;64.178;15.432;2023-11-18T03:45:26;-17.40;99.90
11446;DHT22;5779;64.178;15.432;2023-11-18T03:48:15;-17.30;99.90
11446;DHT22;5779;64.178;15.432;2023-11-18T03:51:05;-17.20;99.90
11446;DHT22;5779;64.178;15.432;2023-11-18T03:53:54;-17.10;99.90
11446;DHT22;5779;64.178;15.432;2023-11-18T03:56:46;-17.00;99.90
11446;DHT22;5779;64.178;15.432;2023-11-18T03:59:41;-17.10;99.90
11446;DHT22;5779;64.178;15.432;2023-11-18T04:02:31;-17.00;99.90
11446;DHT22;5779;64.178;15.432;2023-11-18T04:05:28;-16.90;99.90
11446;DHT22;5779;64.178;15.432;2023-11-18T04:08:20;-16.80;99.90
11446;DHT22;5779;64.178;15.432;2023-11-18T04:11:11;-16.80;99.90
11446;DHT22;5779;64.178;15.432;2023-11-18T04:14:02;-16.70;99.90
11446;DHT22;5779;64.178;15.432;2023-11-18T04:16:57;-16.80;99.90
11446;DHT22;5779;64.178;15.432;2023-11-18T04:19:54;-16.90;99.90
11446;DHT22;5779;64.178;15.432;2023-11-18T04:22:41;-17.40;99.90
11446;DHT22;5779;64.178;15.432;2023-11-18T04:25:34;-17.30;99.90
11446;DHT22;5779;64.178;15.432;2023-11-18T04:28:24;-17.00;99.90
11446;DHT22;5779;64.178;15.432;2023-11-18T04:31:15;-16.90;99.90
11446;DHT22;5779;64.178;15.432;2023-11-18T04:34:02;-16.80;99.90
11446;DHT22;5779;64.178;15.432;2023-11-18T04:36:50;-17.20;99.90
11446;DHT22;5779;64.178;15.432;2023-11-18T04:39:38;-17.50;99.90
11446;DHT22;5779;64.178;15.432;2023-11-18T04:42:29;-17.40;99.90
11446;DHT22;5779;64.178;15.432;2023-11-18T04:45:16;-17.30;99.90
11446;DHT22;5779;64.178;15.432;2023-11-18T04:48:05;-17.30;99.90
11446;DHT22;5779;64.178;15.432;2023-11-18T04:50:56;-17.10;99.90
11446;DHT22;5779;64.178;15.432;2023-11-18T04:53:46;-17.50;99.90
11446;DHT22;5779;64.178;15.432;2023-11-18T04:56:36;-17.20;99.90
11446;DHT22;5779;64.178;15.432;2023-11-18T04:59:26;-16.80;99.90
11446;DHT22;5779;64.178;15.432;2023-11-18T05:02:14;-16.40;99.90
11446;DHT22;5779;64.178;15.432;2023-11-18T05:05:01;-16.30;99.90
11446;DHT22;5779;64.178;15.432;2023-11-18T05:07:56;-16.30;99.90
11446;DHT22;5779;64.178;15.432;2023-11-18T05:10:46;-16.20;99.90
11446;DHT22;5779;64.178;15.432;2023-11-18T05:15:53;-16.20;99.90
11446;DHT22;5779;64.178;15.432;2023-11-18T05:18:45;-16.00;99.90
11446;DHT22;5779;64.178;15.432;2023-11-18T05:22:03;-16.00;99.90
11446;DHT22;5779;64.178;15.432;2023-11-18T05:24:55;-15.80;99.90
11446;DHT22;5779;64.178;15.432;2023-11-18T05:27:51;-15.70;99.90
11446;DHT22;5779;64.178;15.432;2023-11-18T05:30:42;-15.70;99.90
11446;DHT22;5779;64.178;15.432;2023-11-18T05:33:34;-15.90;99.90
11446;DHT22;5779;64.178;15.432;2023-11-18T05:36:24;-15.80;99.90
11446;DHT22;5779;64.178;15.432;2023-11-18T05:39:16;-16.00;99.90
11446;DHT22;5779;64.178;15.432;2023-11-18T05:42:05;-16.10;99.90
11446;DHT22;5779;64.178;15.432;2023-11-18T05:44:53;-16.00;99.90
11446;DHT22;5779;64.178;15.432;2023-11-18T05:47:44;-16.10;99.90
11446;DHT22;5779;64.178;15.432;2023-11-18T05:50:32;-16.20;99.90
11446;DHT22;5779;64.178;15.432;2023-11-18T05:53:19;-16.60;99.90
11446;DHT22;5779;64.178;15.432;2023-11-18T05:56:08;-17.00;99.90
11446;DHT22;5779;64.178;15.432;2023-11-18T05:58:56;-17.40;99.90
11446;DHT22;5779;64.178;15.432;2023-11-18T06:01:44;-17.70;99.90
11446;DHT22;5779;64.178;15.432;2023-11-18T06:04:32;-17.80;99.90
11446;DHT22;5779;64.178;15.432;2023-11-18T06:07:20;-17.60;99.90
11446;DHT22;5779;64.178;15.432;2023-11-18T06:10:09;-17.50;99.90
11446;DHT22;5779;64.178;15.432;2023-11-18T06:12:59;-17.40;99.90
11446;DHT22;5779;64.178;15.432;2023-11-18T06:15:46;-17.10;99.90
11446;DHT22;5779;64.178;15.432;2023-11-18T06:18:33;-17.20;99.90
11446;DHT22;5779;64.178;15.432;2023-11-18T06:21:22;-17.20;99.90
11446;DHT22;5779;64.178;15.432;2023-11-18T06:24:13;-16.80;99.90
11446;DHT22;5779;64.178;15.432;2023-11-18T06:27:02;-16.60;99.90
11446;DHT22;5779;64.178;15.432;2023-11-18T06:29:51;-16.40;99.90
11446;DHT22;5779;64.178;15.432;2023-11-18T06:32:39;-16.30;99.90
11446;DHT22;5779;64.178;15.432;2023-11-18T06:35:26;-16.10;99.90
11446;DHT22;5779;64.178;15.432;2023-11-18T06:38:14;-16.10;99.90
11446;DHT22;5779;64.178;15.432;2023-11-18T06:41:04;-15.90;99.90
11446;DHT22;5779;64.178;15.432;2023-11-18T06:43:53;-15.90;99.90
11446;DHT22;5779;64.178;15.432;2023-11-18T06:46:47;-16.00;99.90
11446;DHT22;5779;64.178;15.432;2023-11-18T06:49:37;-16.00;99.90
11446;DHT22;5779;64.178;15.432;2023-11-18T06:52:26;-15.90;99.90
11446;DHT22;5779;64.178;15.432;2023-11-18T06:55:15;-16.00;99.90
11446;DHT22;5779;64.178;15.432;2023-11-18T06:58:03;-16.00;99.90
11446;DHT22;5779;64.178;15.432;2023-11-18T07:00:52;-15.80;99.90
11446;DHT22;5779;64.178;15.432;2023-11-18T07:03:42;-15.70;99.90
11446;DHT22;5779;64.178;15.432;2023-11-18T07:06:30;-15.80;99.90
11446;DHT22;5779;64.178;15.432;2023-11-18T07:09:18;-16.00;99.90
11446;DHT22;5779;64.178;15.432;2023-11-18T07:12:06;-16.10;99.90
11446;DHT22;5779;64.178;15.432;2023-11-18T07:14:55;-16.20;99.90
11446;DHT22;5779;64.178;15.432;2023-11-18T07:17:43;-16.10;99.90
11446;DHT22;5779;64.178;15.432;2023-11-18T07:20:34;-16.50;99.90
11446;DHT22;5779;64.178;15.432;2023-11-18T07:23:22;-16.70;99.90
11446;DHT22;5779;64.178;15.432;2023-11-18T07:26:10;-17.10;99.90
11446;DHT22;5779;64.178;15.432;2023-11-18T07:28:59;-17.00;99.90
11446;DHT22;5779;64.178;15.432;2023-11-18T07:31:46;-16.70;99.90
11446;DHT22;5779;64.178;15.432;2023-11-18T07:34:34;-16.80;99.90
11446;DHT22;5779;64.178;15.432;2023-11-18T07:37:24;-16.70;99.90
11446;DHT22;5779;64.178;15.432;2023-11-18T07:40:13;-16.60;99.90
11446;DHT22;5779;64.178;15.432;2023-11-18T07:43:07;-16.40;99.90
11446;DHT22;5779;64.178;15.432;2023-11-18T07:45:55;-16.40;99.90
11446;DHT22;5779;64.178;15.432;2023-11-18T07:48:43;-16.20;99.90
11446;DHT22;5779;64.178;15.432;2023-11-18T07:51:31;-16.10;99.90
11446;DHT22;5779;64.178;15.432;2023-11-18T07:54:20;-16.40;99.90
11446;DHT22;5779;64.178;15.432;2023-11-18T07:57:08;-16.30;99.90
11446;DHT22;5779;64.178;15.432;2023-11-18T07:59:56;-16.00;99.90
11446;DHT22;5779;64.178;15.432;2023-11-18T08:02:51;-15.90;99.90
11446;DHT22;5779;64.178;15.432;2023-11-18T08:05:40;-16.00;99.90
11446;DHT22;5779;64.178;15.432;2023-11-18T08:08:29;-16.00;99.90
11446;DHT22;5779;64.178;15.432;2023-11-18T08:11:19;-16.00;99.90
11446;DHT22;5779;64.178;15.432;2023-11-18T08:14:08;-15.80;99.90
11446;DHT22;5779;64.178;15.432;2023-11-18T08:16:55;-15.70;99.90
11446;DHT22;5779;64.178;15.432;2023-11-18T08:19:45;-15.60;99.90
11446;DHT22;5779;64.178;15.432;2023-11-18T08:22:33;-15.40;99.90
11446;DHT22;5779;64.178;15.432;2023-11-18T08:25:20;-15.40;99.90
11446;DHT22;5779;64.178;15.432;2023-11-18T08:28:09;-15.30;99.90
11446;DHT22;5779;64.178;15.432;2023-11-18T08:30:59;-15.10;99.90
11446;DHT22;5779;64.178;15.432;2023-11-18T08:33:47;-15.00;99.90
11446;DHT22;5779;64.178;15.432;2023-11-18T08:36:34;-14.80;99.90
11446;DHT22;5779;64.178;15.432;2023-11-18T08:39:23;-15.00;99.90
11446;DHT22;5779;64.178;15.432;2023-11-18T08:42:11;-15.10;99.90
11446;DHT22;5779;64.178;15.432;2023-11-18T08:45:00;-15.00;99.90
11446;DHT22;5779;64.178;15.432;2023-11-18T08:47:48;-14.80;99.90
11446;DHT22;5779;64.178;15.432;2023-11-18T08:50:36;-14.60;99.90
11446;DHT22;5779;64.178;15.432;2023-11-18T08:53:25;-14.50;99.90
11446;DHT22;5779;64.178;15.432;2023-11-18T08:56:12;-14.40;99.90
11446;DHT22;5779;64.178;15.432;2023-11-18T08:59:00;-14.60;99.90
11446;DHT22;5779;64.178;15.432;2023-11-18T09:01:48;-14.40;99.90
11446;DHT22;5779;64.178;15.432;2023-11-18T09:04:36;-14.20;99.90
11446;DHT22;5779;64.178;15.432;2023-11-18T09:07:24;-14.20;99.90
11446;DHT22;5779;64.178;15.432;2023-11-18T09:10:11;-14.20;99.90
11446;DHT22;5779;64.178;15.432;2023-11-18T09:12:58;-14.10;99.90
11446;DHT22;5779;64.178;15.432;2023-11-18T09:15:45;-14.10;99.90
11446;DHT22;5779;64.178;15.432;2023-11-18T09:18:33;-14.20;99.90
11446;DHT22;5779;64.178;15.432;2023-11-18T09:21:20;-14.10;99.90
11446;DHT22;5779;64.178;15.432;2023-11-18T09:24:10;-14.40;99.90
11446;DHT22;5779;64.178;15.432;2023-11-18T09:26:59;-14.50;99.90
11446;DHT22;5779;64.178;15.432;2023-11-18T09:29:47;-14.60;99.90
11446;DHT22;5779;64.178;15.432;2023-11-18T09:32:34;-14.40;99.90
11446;DHT22;5779;64.178;15.432;2023-11-18T09:35:25;-14.20;99.90
11446;DHT22;5779;64.178;15.432;2023-11-18T09:38:13;-13.90;99.90
11446;DHT22;5779;64.178;15.432;2023-11-18T09:41:00;-13.70;99.90
11446;DHT22;5779;64.178;15.432;2023-11-18T09:43:47;-13.60;99.90
11446;DHT22;5779;64.178;15.432;2023-11-18T09:46:41;-13.70;99.90
11446;DHT22;5779;64.178;15.432;2023-11-18T09:49:31;-13.60;99.90
11446;DHT22;5779;64.178;15.432;2023-11-18T09:52:26;-14.00;99.90
11446;DHT22;5779;64.178;15.432;2023-11-18T09:55:25;-14.20;99.90
11446;DHT22;5779;64.178;15.432;2023-11-18T09:58:16;-14.20;99.90
11446;DHT22;5779;64.178;15.432;2023-11-18T10:01:09;-14.00;99.90
11446;DHT22;5779;64.178;15.432;2023-11-18T10:03:58;-13.90;99.90
11446;DHT22;5779;64.178;15.432;2023-11-18T10:06:51;-13.90;99.90
11446;DHT22;5779;64.178;15.432;2023-11-18T10:09:41;-13.70;99.90
11446;DHT22;5779;64.178;15.432;2023-11-18T10:12:28;-13.40;99.90
11446;DHT22;5779;64.178;15.432;2023-11-18T10:15:15;-13.30;99.90
11446;DHT22;5779;64.178;15.432;2023-11-18T10:18:03;-13.10;99.90
11446;DHT22;5779;64.178;15.432;2023-11-18T10:20:52;-13.00;99.90
11446;DHT22;5779;64.178;15.432;2023-11-18T10:23:42;-12.90;99.90
11446;DHT22;5779;64.178;15.432;2023-11-18T10:26:54;-12.80;99.90
11446;DHT22;5779;64.178;15.432;2023-11-18T10:29:41;-12.70;99.90
11446;DHT22;5779;64.178;15.432;2023-11-18T10:32:28;-12.60;99.90
11446;DHT22;5779;64.178;15.432;2023-11-18T10:35:20;-12.60;99.90
11446;DHT22;5779;64.178;15.432;2023-11-18T10:38:07;-12.60;99.90
11446;DHT22;5779;64.178;15.432;2023-11-18T10:40:55;-12.40;99.90
11446;DHT22;5779;64.178;15.432;2023-11-18T10:43:43;-12.60;99.90
11446;DHT22;5779;64.178;15.432;2023-11-18T10:46:30;-12.50;99.90
11446;DHT22;5779;64.178;15.432;2023-11-18T10:49:17;-12.60;99.90
11446;DHT22;5779;64.178;15.432;2023-11-18T10:52:05;-12.80;99.90
11446;DHT22;5779;64.178;15.432;2023-11-18T10:54:53;-12.90;99.90
11446;DHT22;5779;64.178;15.432;2023-11-18T10:57:41;-12.90;99.90
11446;DHT22;5779;64.178;15.432;2023-11-18T11:00:48;-12.90;99.90
11446;DHT22;5779;64.178;15.432;2023-11-18T11:03:36;-12.80;99.90
11446;DHT22;5779;64.178;15.432;2023-11-18T11:06:41;-12.80;99.90
11446;DHT22;5779;64.178;15.432;2023-11-18T11:09:28;-12.60;99.90
11446;DHT22;5779;64.178;15.432;2023-11-18T11:12:21;-12.30;99.90
11446;DHT22;5779;64.178;15.432;2023-11-18T11:15:12;-12.60;99.90
11446;DHT22;5779;64.178;15.432;2023-11-18T11:18:09;-12.80;99.90
11446;DHT22;5779;64.178;15.432;2023-11-18T11:21:07;-12.60;99.90
11446;DHT22;5779;64.178;15.432;2023-11-18T11:24:04;-12.60;99.90
11446;DHT22;5779;64.178;15.432;2023-11-18T11:27:04;-12.70;99.90
11446;DHT22;5779;64.178;15.432;2023-11-18T11:30:01;-12.50;99.90
11446;DHT22;5779;64.178;15.432;2023-11-18T11:33:03;-12.10;99.90
11446;DHT22;5779;64.178;15.432;2023-11-18T11:35:56;-11.90;99.90
11446;DHT22;5779;64.178;15.432;2023-11-18T11:38:44;-11.80;99.90
11446;DHT22;5779;64.178;15.432;2023-11-18T11:41:33;-11.60;99.90
11446;DHT22;5779;64.178;15.432;2023-11-18T11:44:19;-11.60;99.90
11446;DHT22;5779;64.178;15.432;2023-11-18T11:47:10;-11.70;99.90
11446;DHT22;5779;64.178;15.432;2023-11-18T11:50:05;-12.20;99.90
11446;DHT22;5779;64.178;15.432;2023-11-18T11:52:59;-12.20;99.90
11446;DHT22;5779;64.178;15.432;2023-11-18T11:55:53;-12.00;99.90
11446;DHT22;5779;64.178;15.432;2023-11-18T11:58:50;-11.90;99.90
11446;DHT22;5779;64.178;15.432;2023-11-18T12:01:39;-11.70;99.90
11446;DHT22;5779;64.178;15.432;2023-11-18T12:04:32;-11.40;99.90
11446;DHT22;5779;64.178;15.432;2023-11-18T12:07:19;-11.30;99.90
11446;DHT22;5779;64.178;15.432;2023-11-18T12:10:10;-11.30;99.90
11446;DHT22;5779;64.178;15.432;2023-11-18T12:13:09;-11.50;99.90
11446;DHT22;5779;64.178;15.432;2023-11-18T12:16:00;-11.70;99.90
11446;DHT22;5779;64.178;15.432;2023-11-18T12:19:30;-11.60;99.90
11446;DHT22;5779;64.178;15.432;2023-11-18T12:22:23;-11.60;99.90
11446;DHT22;5779;64.178;15.432;2023-11-18T12:25:31;-11.40;99.90
11446;DHT22;5779;64.178;15.432;2023-11-18T12:28:26;-11.40;99.90
11446;DHT22;5779;64.178;15.432;2023-11-18T12:31:41;-11.30;99.90
11446;DHT22;5779;64.178;15.432;2023-11-18T12:34:49;-11.60;99.90
11446;DHT22;5779;64.178;15.432;2023-11-18T12:38:00;-11.60;99.90
11446;DHT22;5779;64.178;15.432;2023-11-18T12:40:57;-11.40;99.90
11446;DHT22;5779;64.178;15.432;2023-11-18T12:43:48;-11.30;99.90
11446;DHT22;5779;64.178;15.432;2023-11-18T12:46:50;-11.40;99.90
11446;DHT22;5779;64.178;15.432;2023-11-18T12:49:38;-11.20;99.90
11446;DHT22;5779;64.178;15.432;2023-11-18T12:52:27;-11.00;99.90
11446;DHT22;5779;64.178;15.432;2023-11-18T12:55:16;-11.10;99.90
11446;DHT22;5779;64.178;15.432;2023-11-18T12:58:07;-11.10;99.90
11446;DHT22;5779;64.178;15.432;2023-11-18T13:00:56;-11.20;99.90
11446;DHT22;5779;64.178;15.432;2023-11-18T13:03:45;-11.30;99.90
11446;DHT22;5779;64.178;15.432;2023-11-18T13:06:32;-11.60;99.90
11446;DHT22;5779;64.178;15.432;2023-11-18T13:09:19;-12.20;99.90
11446;DHT22;5779;64.178;15.432;2023-11-18T13:12:12;-12.10;99.90
11446;DHT22;5779;64.178;15.432;2023-11-18T13:15:02;-12.20;99.90
11446;DHT22;5779;64.178;15.432;2023-11-18T13:17:59;-12.20;99.90
11446;DHT22;5779;64.178;15.432;2023-11-18T13:20:56;-12.10;99.90
11446;DHT22;5779;64.178;15.432;2023-11-18T13:23:48;-12.20;99.90
11446;DHT22;5779;64.178;15.432;2023-11-18T13:26:35;-12.30;99.90
11446;DHT22;5779;64.178;15.432;2023-11-18T13:29:23;-12.30;99.90
11446;DHT22;5779;64.178;15.432;2023-11-18T13:32:12;-12.30;99.90
11446;DHT22;5779;64.178;15.432;2023-11-18T13:35:01;-12.20;99.90
11446;DHT22;5779;64.178;15.432;2023-11-18T13:37:49;-12.20;99.90
11446;DHT22;5779;64.178;15.432;2023-11-18T13:40:43;-12.20;99.90
11446;DHT22;5779;64.178;15.432;2023-11-18T13:43:42;-12.60;99.90
11446;DHT22;5779;64.178;15.432;2023-11-18T13:46:29;-12.90;99.90
11446;DHT22;5779;64.178;15.432;2023-11-18T13:49:20;-13.00;99.90
11446;DHT22;5779;64.178;15.432;2023-11-18T13:52:07;-13.30;99.90
11446;DHT22;5779;64.178;15.432;2023-11-18T13:54:56;-13.60;99.90
11446;DHT22;5779;64.178;15.432;2023-11-18T13:57:44;-14.10;99.90
11446;DHT22;5779;64.178;15.432;2023-11-18T14:00:31;-14.30;99.90
11446;DHT22;5779;64.178;15.432;2023-11-18T14:03:19;-14.30;99.90
11446;DHT22;5779;64.178;15.432;2023-11-18T14:06:08;-14.40;99.90
11446;DHT22;5779;64.178;15.432;2023-11-18T14:08:56;-14.40;99.90
11446;DHT22;5779;64.178;15.432;2023-11-18T14:11:44;-14.20;99.90
11446;DHT22;5779;64.178;15.432;2023-11-18T14:14:30;-14.00;99.90
11446;DHT22;5779;64.178;15.432;2023-11-18T14:17:17;-14.30;99.90
11446;DHT22;5779;64.178;15.432;2023-11-18T14:20:05;-14.30;99.90
11446;DHT22;5779;64.178;15.432;2023-11-18T14:22:59;-14.10;99.90
11446;DHT22;5779;64.178;15.432;2023-11-18T14:25:46;-13.80;99.90
11446;DHT22;5779;64.178;15.432;2023-11-18T14:28:33;-13.60;99.90
11446;DHT22;5779;64.178;15.432;2023-11-18T14:31:21;-13.60;99.90
11446;DHT22;5779;64.178;15.432;2023-11-18T14:34:08;-13.50;99.90
11446;DHT22;5779;64.178;15.432;2023-11-18T14:36:55;-13.60;99.90
11446;DHT22;5779;64.178;15.432;2023-11-18T14:39:44;-13.60;99.90
11446;DHT22;5779;64.178;15.432;2023-11-18T14:42:31;-13.70;99.90
11446;DHT22;5779;64.178;15.432;2023-11-18T14:45:19;-13.70;99.90
11446;DHT22;5779;64.178;15.432;2023-11-18T14:48:07;-13.70;99.90
11446;DHT22;5779;64.178;15.432;2023-11-18T14:50:54;-13.70;99.90
11446;DHT22;5779;64.178;15.432;2023-11-18T14:53:42;-13.80;99.90
11446;DHT22;5779;64.178;15.432;2023-11-18T14:56:30;-14.10;99.90
11446;DHT22;5779;64.178;15.432;2023-11-18T14:59:17;-14.40;99.90
11446;DHT22;5779;64.178;15.432;2023-11-18T15:02:07;-14.30;99.90
11446;DHT22;5779;64.178;15.432;2023-11-18T15:04:54;-14.30;99.90
11446;DHT22;5779;64.178;15.432;2023-11-18T15:07:41;-14.20;99.90
11446;DHT22;5779;64.178;15.432;2023-11-18T15:10:30;-14.30;99.90
11446;DHT22;5779;64.178;15.432;2023-11-18T15:13:18;-14.70;99.90
11446;DHT22;5779;64.178;15.432;2023-11-18T15:16:06;-14.90;99.90
11446;DHT22;5779;64.178;15.432;2023-11-18T15:18:53;-15.10;99.90
11446;DHT22;5779;64.178;15.432;2023-11-18T15:21:41;-15.10;99.90
11446;DHT22;5779;64.178;15.432;2023-11-18T15:24:28;-15.00;99.90
11446;DHT22;5779;64.178;15.432;2023-11-18T15:27:17;-14.90;99.90
11446;DHT22;5779;64.178;15.432;2023-11-18T15:30:08;-14.60;99.90
11446;DHT22;5779;64.178;15.432;2023-11-18T15:32:56;-14.50;99.90
11446;DHT22;5779;64.178;15.432;2023-11-18T15:35:43;-14.70;99.90
11446;DHT22;5779;64.178;15.432;2023-11-18T15:38:30;-15.40;99.90
11446;DHT22;5779;64.178;15.432;2023-11-18T15:41:19;-15.50;99.90
11446;DHT22;5779;64.178;15.432;2023-11-18T15:44:07;-15.40;99.90
11446;DHT22;5779;64.178;15.432;2023-11-18T15:46:57;-15.40;99.90
11446;DHT22;5779;64.178;15.432;2023-11-18T15:49:44;-15.50;99.90
11446;DHT22;5779;64.178;15.432;2023-11-18T15:52:31;-15.20;99.90
11446;DHT22;5779;64.178;15.432;2023-11-18T15:55:19;-15.10;99.90
11446;DHT22;5779;64.178;15.432;2023-11-18T15:58:06;-14.90;99.90
11446;DHT22;5779;64.178;15.432;2023-11-18T16:00:54;-14.80;99.90
11446;DHT22;5779;64.178;15.432;2023-11-18T16:03:43;-15.20;99.90
11446;DHT22;5779;64.178;15.432;2023-11-18T16:06:31;-15.30;99.90
11446;DHT22;5779;64.178;15.432;2023-11-18T16:09:18;-15.30;99.90
11446;DHT22;5779;64.178;15.432;2023-11-18T16:12:06;-15.60;99.90
11446;DHT22;5779;64.178;15.432;2023-11-18T16:14:53;-15.70;99.90
11446;DHT22;5779;64.178;15.432;2023-11-18T16:17:40;-15.70;99.90
11446;DHT22;5779;64.178;15.432;2023-11-18T16:20:29;-15.50;99.90
11446;DHT22;5779;64.178;15.432;2023-11-18T16:23:18;-15.80;99.90
11446;DHT22;5779;64.178;15.432;2023-11-18T16:26:06;-15.50;99.90
11446;DHT22;5779;64.178;15.432;2023-11-18T16:28:53;-15.40;99.90
11446;DHT22;5779;64.178;15.432;2023-11-18T16:31:40;-15.40;99.90
11446;DHT22;5779;64.178;15.432;2023-11-18T16:34:28;-15.40;99.90
11446;DHT22;5779;64.178;15.432;2023-11-18T16:37:17;-15.70;99.90
11446;DHT22;5779;64.178;15.432;2023-11-18T16:40:06;-15.70;99.90
11446;DHT22;5779;64.178;15.432;2023-11-18T16:42:55;-15.60;99.90
11446;DHT22;5779;64.178;15.432;2023-11-18T16:45:44;-15.50;99.90
11446;DHT22;5779;64.178;15.432;2023-11-18T16:48:31;-15.50;99.90
11446;DHT22;5779;64.178;15.432;2023-11-18T16:51:18;-15.40;99.90
11446;DHT22;5779;64.178;15.432;2023-11-18T16:54:07;-15.60;99.90
11446;DHT22;5779;64.178;15.432;2023-11-18T16:56:54;-15.70;99.90
11446;DHT22;5779;64.178;15.432;2023-11-18T16:59:41;-15.60;99.90
11446;DHT22;5779;64.178;15.432;2023-11-18T17:05:34;-15.50;99.90
11446;DHT22;5779;64.178;15.432;2023-11-18T17:08:21;-15.40;99.90
11446;DHT22;5779;64.178;15.432;2023-11-18T17:11:11;-15.40;99.90
11446;DHT22;5779;64.178;15.432;2023-11-18T17:13:58;-15.30;99.90
11446;DHT22;5779;64.178;15.432;2023-11-18T17:16:45;-15.20;99.90
11446;DHT22;5779;64.178;15.432;2023-11-18T17:19:31;-15.20;99.90
11446;DHT22;5779;64.178;15.432;2023-11-18T17:22:18;-15.30;99.90
11446;DHT22;5779;64.178;15.432;2023-11-18T17:25:07;-15.30;99.90
11446;DHT22;5779;64.178;15.432;2023-11-18T17:27:59;-15.30;99.90
11446;DHT22;5779;64.178;15.432;2023-11-18T17:30:49;-15.10;99.90
11446;DHT22;5779;64.178;15.432;2023-11-18T17:33:36;-15.10;99.90
11446;DHT22;5779;64.178;15.432;2023-11-18T17:36:23;-14.90;99.90
11446;DHT22;5779;64.178;15.432;2023-11-18T17:39:10;-14.80;99.90